Terminal Aerodrome Forecast
Issued by NWS Wilmington, OH

Current Version | Previous Version | Graphics & Text | Print | Product List | Glossary On
Versions: 1 2 3 4 5 6 7 8 9 10 11 12 13 14 15 16 17 18 19 20 21 22 23 24 25 26 27 28 29 30
678
FTUS41 KILN 212059 AAA
TAFDAY
TAF AMD
KDAY 212059Z 2121/2218 36010KT P6SM VCSH OVC007
     FM212200 02012KT P6SM VCSH OVC011
     FM220200 03010G17KT 2SM -SHRA BR OVC015
     FM221400 05010KT P6SM OVC015=

USA.gov is the U.S. government's official web portal to all federal, state and local government web resources and services.